Time;durP1;ratioP1;P1;durP2;ratioP2;P2;SDS_P1;SDS_P2;PMS_P1;PMS_P2;Temp;Humidity;BMP_temperature;BMP_pressure;BME280_temperature;BME280_humidity;BME280_pressure;Samples;Min_cycle;Max_cycle;Signal;HPM_P1;HPM_P2
2022/04/28 00:02:09;;;;;;;115.10;104.65;;;;;;;;;;5096968;28;20027;-39
2022/04/28 00:04:34;;;;;;;85.78;78.43;;;;;;;;;;5096442;28;20020;-39
2022/04/28 00:07:00;;;;;;;98.95;90.60;;;;;;;;;;5096406;28;20031;-39
2022/04/28 00:09:25;;;;;;;97.82;89.85;;;;;;;;;;5096312;28;20452;-39
2022/04/28 00:11:51;;;;;;;115.22;104.38;;;;;;;;;;5096205;28;20389;-39
2022/04/28 00:14:16;;;;;;;172.63;150.07;;;;;;;;;;5095983;28;20024;-40
2022/04/28 00:16:42;;;;;;;159.25;141.82;;;;;;;;;;5094941;28;20089;-39
2022/04/28 00:19:07;;;;;;;157.88;141.35;;;;;;;;;;5096073;28;20118;-39
2022/04/28 00:21:32;;;;;;;163.52;143.25;;;;;;;;;;5096209;28;20042;-39
2022/04/28 00:23:57;;;;;;;114.85;103.43;;;;;;;;;;5095973;28;20366;-39
2022/04/28 00:26:23;;;;;;;171.32;152.68;;;;;;;;;;5096001;28;20438;-39
2022/04/28 00:28:48;;;;;;;151.90;136.88;;;;;;;;;;5095795;28;20019;-40
2022/04/28 00:31:14;;;;;;;167.10;149.27;;;;;;;;;;5095872;28;20052;-39
2022/04/28 00:33:41;;;;;;;167.95;145.20;;;;;;;;;;5095797;28;20012;-39
2022/04/28 00:36:07;;;;;;;154.35;138.23;;;;;;;;;;5095735;28;20098;-39
2022/04/28 00:38:32;;;;;;;153.00;137.60;;;;;;;;;;5095757;28;20055;-40
2022/04/28 00:40:57;;;;;;;159.93;142.77;;;;;;;;;;5095806;28;20038;-39
2022/04/28 00:43:28;;;;;;;135.65;122.40;;;;;;;;;;5095568;28;20073;-40
2022/04/28 00:45:54;;;;;;;133.95;121.45;;;;;;;;;;5095651;28;20040;-39
2022/04/28 00:51:04;;;;;;;134.70;121.57;;;;;;;;;;5095455;28;20120;-39
2022/04/28 00:53:30;;;;;;;82.32;75.97;;;;;;;;;;5095538;28;20447;-39
2022/04/28 00:55:56;;;;;;;32.53;27.20;;;;;;;;;;5095213;28;20020;-40
2022/04/28 00:58:22;;;;;;;37.50;33.47;;;;;;;;;;5095872;28;20035;-39
2022/04/28 01:00:47;;;;;;;43.38;39.25;;;;;;;;;;5095505;28;20016;-39
2022/04/28 01:03:13;;;;;;;37.60;32.38;;;;;;;;;;5094215;28;20024;-39
2022/04/28 01:05:38;;;;;;;41.28;37.30;;;;;;;;;;5095670;28;20020;-39
2022/04/28 01:08:04;;;;;;;38.97;35.13;;;;;;;;;;5095138;28;20485;-39
2022/04/28 01:10:29;;;;;;;42.33;38.17;;;;;;;;;;5095095;28;20370;-40
2022/04/28 01:12:54;;;;;;;67.20;62.28;;;;;;;;;;5094946;28;20383;-39
2022/04/28 01:15:19;;;;;;;76.78;70.95;;;;;;;;;;5095220;28;20016;-39
2022/04/28 01:17:45;;;;;;;101.85;92.80;;;;;;;;;;5095329;28;20020;-39
2022/04/28 01:20:10;;;;;;;94.95;86.25;;;;;;;;;;5094997;28;20016;-39
2022/04/28 01:22:36;;;;;;;56.83;51.97;;;;;;;;;;5095000;28;20566;-39
2022/04/28 01:25:08;;;;;;;108.60;100.75;;;;;;;;;;5094852;28;20521;-39
2022/04/28 01:27:34;;;;;;;87.95;80.88;;;;;;;;;;5094831;28;20032;-39
2022/04/28 01:30:00;;;;;;;29.50;26.70;;;;;;;;;;5095149;28;20054;-39
2022/04/28 01:32:26;;;;;;;30.85;27.98;;;;;;;;;;5094875;28;20052;-39
2022/04/28 01:34:51;;;;;;;62.05;56.63;;;;;;;;;;5094635;28;20508;-40
2022/04/28 01:37:17;;;;;;;86.63;79.32;;;;;;;;;;5094634;28;20027;-39
2022/04/28 01:39:43;;;;;;;32.60;21.90;;;;;;;;;;5094420;28;20024;-39
2022/04/28 01:42:08;;;;;;;23.27;11.02;;;;;;;;;;5094352;28;20042;-39
2022/04/28 01:44:34;;;;;;;15.50;8.25;;;;;;;;;;5094622;28;20024;-39
2022/04/28 01:47:00;;;;;;;24.10;10.90;;;;;;;;;;5094707;28;20032;-39
2022/04/28 01:49:25;;;;;;;13.52;8.85;;;;;;;;;;5094394;28;20059;-39
2022/04/28 01:57:18;;;;;;;17.52;10.93;;;;;;;;;;5094216;28;20034;-39
2022/04/28 01:59:43;;;;;;;26.80;12.15;;;;;;;;;;5094276;28;20024;-39
2022/04/28 02:02:08;;;;;;;24.92;13.07;;;;;;;;;;5094223;28;20035;-40
2022/04/28 02:04:34;;;;;;;23.95;11.07;;;;;;;;;;5094082;28;20441;-39
2022/04/28 02:06:59;;;;;;;28.33;12.35;;;;;;;;;;5094255;28;20043;-39
2022/04/28 02:09:24;;;;;;;19.40;11.70;;;;;;;;;;5094304;28;20016;-39
2022/04/28 02:11:50;;;;;;;18.30;10.48;;;;;;;;;;5094420;28;20103;-39
2022/04/28 02:14:15;;;;;;;28.35;11.65;;;;;;;;;;5093860;28;20027;-39
2022/04/28 02:16:40;;;;;;;24.65;11.73;;;;;;;;;;5093811;28;20023;-39
2022/04/28 02:19:06;;;;;;;30.63;11.95;;;;;;;;;;5094171;28;20019;-39
2022/04/28 02:21:31;;;;;;;22.55;13.02;;;;;;;;;;5093776;28;20034;-40
2022/04/28 02:23:56;;;;;;;20.17;12.07;;;;;;;;;;5093640;28;20077;-39
2022/04/28 02:26:21;;;;;;;18.20;11.18;;;;;;;;;;5092667;28;20415;-39
2022/04/28 02:28:47;;;;;;;24.75;11.77;;;;;;;;;;5093768;28;20024;-39
2022/04/28 02:31:12;;;;;;;26.70;10.57;;;;;;;;;;5093763;28;20020;-39
2022/04/28 02:33:38;;;;;;;23.23;10.35;;;;;;;;;;5093585;28;20420;-39
2022/04/28 02:36:04;;;;;;;28.27;11.57;;;;;;;;;;5093532;28;20035;-39
2022/04/28 02:38:29;;;;;;;24.10;11.98;;;;;;;;;;5093377;28;20027;-39
2022/04/28 02:40:54;;;;;;;26.13;11.15;;;;;;;;;;5093385;28;20024;-39
2022/04/28 02:43:19;;;;;;;20.17;10.90;;;;;;;;;;5093378;28;20474;-39
2022/04/28 02:45:46;;;;;;;25.48;12.30;;;;;;;;;;5093494;28;20024;-39
2022/04/28 02:48:11;;;;;;;30.10;12.25;;;;;;;;;;5093145;28;20075;-39
2022/04/28 02:50:37;;;;;;;30.40;12.38;;;;;;;;;;5093485;28;20360;-39
2022/04/28 02:53:02;;;;;;;31.60;12.23;;;;;;;;;;5093244;28;20024;-39
2022/04/28 02:55:27;;;;;;;16.80;10.75;;;;;;;;;;5093577;28;20050;-39
2022/04/28 02:57:53;;;;;;;23.10;10.73;;;;;;;;;;5093252;28;20074;-39
2022/04/28 03:00:18;;;;;;;26.27;11.52;;;;;;;;;;5093586;28;20020;-39
2022/04/28 03:02:44;;;;;;;30.70;13.52;;;;;;;;;;5093193;28;20016;-39
2022/04/28 03:05:09;;;;;;;26.05;11.98;;;;;;;;;;5093111;28;20354;-39
2022/04/28 03:10:49;;;;;;;22.15;11.70;;;;;;;;;;5093390;28;20149;-39
2022/04/28 03:13:15;;;;;;;30.20;11.45;;;;;;;;;;5093168;28;20084;-39
2022/04/28 03:15:40;;;;;;;28.45;12.30;;;;;;;;;;5092889;28;20447;-39
2022/04/28 03:18:05;;;;;;;30.65;12.30;;;;;;;;;;5092815;28;20048;-39
2022/04/28 03:20:30;;;;;;;22.73;12.48;;;;;;;;;;5092927;28;20141;-39
2022/04/28 03:22:56;;;;;;;29.77;12.43;;;;;;;;;;5092998;28;20087;-39
2022/04/28 03:25:21;;;;;;;25.73;12.45;;;;;;;;;;5092682;28;20065;-39
2022/04/28 03:27:46;;;;;;;24.50;12.63;;;;;;;;;;5095882;28;20036;-39
2022/04/28 03:30:12;;;;;;;27.75;12.82;;;;;;;;;;5097214;28;20036;-39
2022/04/28 03:32:37;;;;;;;34.55;12.82;;;;;;;;;;5096850;28;20052;-41
2022/04/28 03:35:03;;;;;;;34.50;13.23;;;;;;;;;;5097350;28;20028;-39
2022/04/28 03:37:28;;;;;;;22.13;11.77;;;;;;;;;;5097196;28;20020;-39
2022/04/28 03:39:53;;;;;;;21.30;11.40;;;;;;;;;;5096799;28;20027;-39
2022/04/28 03:42:19;;;;;;;28.52;11.60;;;;;;;;;;5096943;28;20028;-38
2022/04/28 03:44:44;;;;;;;27.27;11.80;;;;;;;;;;5095566;28;20455;-39
2022/04/28 03:47:09;;;;;;;36.10;13.55;;;;;;;;;;5096564;28;20028;-39
2022/04/28 03:49:34;;;;;;;30.60;12.65;;;;;;;;;;5096549;28;20105;-38
2022/04/28 03:52:00;;;;;;;21.13;11.75;;;;;;;;;;5097141;28;20027;-38
2022/04/28 03:54:25;;;;;;;21.70;11.63;;;;;;;;;;5097081;28;20020;-39
2022/04/28 03:56:50;;;;;;;21.27;11.85;;;;;;;;;;5096616;28;20087;-38
2022/04/28 03:59:16;;;;;;;34.88;12.52;;;;;;;;;;5096498;28;20016;-38
2022/04/28 04:01:41;;;;;;;23.20;11.70;;;;;;;;;;5096930;28;20035;-38
2022/04/28 04:04:06;;;;;;;36.13;12.55;;;;;;;;;;5096249;28;20093;-38
2022/04/28 04:06:32;;;;;;;25.23;12.45;;;;;;;;;;5096337;28;20019;-38
2022/04/28 04:08:57;;;;;;;23.25;12.18;;;;;;;;;;5096479;28;20494;-38
2022/04/28 04:11:23;;;;;;;25.17;12.25;;;;;;;;;;5096334;28;20099;-39
2022/04/28 04:13:48;;;;;;;26.75;13.43;;;;;;;;;;5096362;28;20035;-39
2022/04/28 04:16:14;;;;;;;27.63;12.05;;;;;;;;;;5096112;28;20024;-39
2022/04/28 04:18:39;;;;;;;33.35;12.15;;;;;;;;;;5095943;28;20447;-39
2022/04/28 04:21:04;;;;;;;39.60;14.02;;;;;;;;;;5094686;28;20027;-39
2022/04/28 04:23:31;;;;;;;20.77;10.95;;;;;;;;;;5094801;28;20016;-39
2022/04/28 04:25:57;;;;;;;22.80;11.73;;;;;;;;;;5096103;28;20069;-38
2022/04/28 04:28:22;;;;;;;18.80;11.07;;;;;;;;;;5095999;28;20068;-38
2022/04/28 04:33:31;;;;;;;25.38;11.45;;;;;;;;;;5095831;28;20076;-39
2022/04/28 04:35:57;;;;;;;22.40;11.30;;;;;;;;;;5095991;28;20016;-39
2022/04/28 04:38:22;;;;;;;27.02;12.57;;;;;;;;;;5095774;28;20106;-40
2022/04/28 04:40:47;;;;;;;27.38;12.27;;;;;;;;;;5095797;28;20103;-39
2022/04/28 04:43:15;;;;;;;54.25;15.85;;;;;;;;;;5095692;28;20059;-39
2022/04/28 04:45:43;;;;;;;26.20;11.63;;;;;;;;;;5095696;28;20039;-39
2022/04/28 04:48:09;;;;;;;28.30;11.90;;;;;;;;;;5095098;28;20109;-39
2022/04/28 04:50:35;;;;;;;30.70;12.10;;;;;;;;;;5095694;28;20035;-39
2022/04/28 04:53:00;;;;;;;24.17;11.05;;;;;;;;;;5095932;28;20386;-39
2022/04/28 04:55:26;;;;;;;24.10;11.95;;;;;;;;;;5095562;28;20020;-38
2022/04/28 04:57:51;;;;;;;23.55;11.05;;;;;;;;;;5095496;28;20471;-39
2022/04/28 05:00:16;;;;;;;35.90;13.55;;;;;;;;;;5095351;28;20024;-39
2022/04/28 05:02:41;;;;;;;33.55;12.52;;;;;;;;;;5095548;28;20028;-39
2022/04/28 05:05:07;;;;;;;30.13;12.13;;;;;;;;;;5095664;28;20023;-39
2022/04/28 05:07:32;;;;;;;24.13;10.90;;;;;;;;;;5095229;28;20032;-39
2022/04/28 05:09:58;;;;;;;22.05;11.68;;;;;;;;;;5095258;28;20020;-39
2022/04/28 05:12:23;;;;;;;25.02;11.45;;;;;;;;;;5095173;28;20020;-38
2022/04/28 05:14:48;;;;;;;24.75;11.60;;;;;;;;;;5095071;28;20181;-39
2022/04/28 05:17:14;;;;;;;51.20;14.38;;;;;;;;;;5094795;28;20065;-39
2022/04/28 05:19:39;;;;;;;31.20;12.63;;;;;;;;;;5094966;28;20016;-39
2022/04/28 05:22:04;;;;;;;27.13;12.15;;;;;;;;;;5095110;28;20405;-39
2022/04/28 05:24:30;;;;;;;23.23;13.25;;;;;;;;;;5095139;28;20375;-39
2022/04/28 05:26:55;;;;;;;23.17;11.95;;;;;;;;;;5095055;28;20067;-39
2022/04/28 05:29:20;;;;;;;24.13;13.50;;;;;;;;;;5094640;28;20440;-39
2022/04/28 05:31:45;;;;;;;43.15;33.50;;;;;;;;;;5094696;28;20023;-40
2022/04/28 05:34:11;;;;;;;62.85;55.58;;;;;;;;;;5072532;28;20486;-39
2022/04/28 05:36:37;;;;;;;42.55;16.90;;;;;;;;;;5083352;28;20024;-40
2022/04/28 05:39:03;;;;;;;40.08;15.18;;;;;;;;;;5085563;28;20020;-40
2022/04/28 05:41:28;;;;;;;99.20;90.88;;;;;;;;;;5096242;28;20040;-39
2022/04/28 05:46:38;;;;;;;38.22;16.40;;;;;;;;;;5093812;28;20034;-39
2022/04/28 05:49:06;;;;;;;32.55;13.98;;;;;;;;;;5096834;28;20048;-39
2022/04/28 05:51:32;;;;;;;45.72;14.90;;;;;;;;;;5079301;28;20372;-39
2022/04/28 05:53:57;;;;;;;33.05;13.18;;;;;;;;;;5097527;28;20102;-39
2022/04/28 05:56:23;;;;;;;29.73;16.63;;;;;;;;;;5087402;28;20016;-39
2022/04/28 05:58:48;;;;;;;30.15;13.52;;;;;;;;;;5078546;28;20082;-39
2022/04/28 06:01:13;;;;;;;36.63;13.98;;;;;;;;;;5076135;28;20025;-39
2022/04/28 06:03:41;;;;;;;31.17;13.98;;;;;;;;;;5073078;28;20107;-39
2022/04/28 06:06:06;;;;;;;37.58;12.10;;;;;;;;;;5085410;28;20055;-39
2022/04/28 06:08:32;;;;;;;28.05;12.00;;;;;;;;;;5091019;28;20071;-38
2022/04/28 06:10:58;;;;;;;35.22;13.40;;;;;;;;;;5078004;28;20411;-39
2022/04/28 06:13:24;;;;;;;30.55;12.32;;;;;;;;;;5087914;28;20026;-39
2022/04/28 06:15:49;;;;;;;52.40;43.92;;;;;;;;;;5089168;28;20028;-39
2022/04/28 06:18:14;;;;;;;40.55;18.70;;;;;;;;;;5078487;28;20378;-39
2022/04/28 06:20:40;;;;;;;43.88;16.42;;;;;;;;;;5082025;28;20035;-38
2022/04/28 06:23:06;;;;;;;32.03;13.60;;;;;;;;;;5093885;28;20016;-38
2022/04/28 06:25:32;;;;;;;40.83;16.30;;;;;;;;;;5080399;28;20498;-38
2022/04/28 06:27:57;;;;;;;30.02;13.30;;;;;;;;;;5085793;28;20027;-39
2022/04/28 06:30:23;;;;;;;70.10;63.45;;;;;;;;;;5084330;28;20077;-39
2022/04/28 06:32:49;;;;;;;31.95;16.10;;;;;;;;;;5086651;28;20055;-39
2022/04/28 06:35:15;;;;;;;42.17;16.60;;;;;;;;;;5083565;28;20028;-38
2022/04/28 06:37:40;;;;;;;48.00;15.02;;;;;;;;;;5080984;28;21138;-39
2022/04/28 06:40:06;;;;;;;75.88;66.22;;;;;;;;;;5075276;28;20020;-39
2022/04/28 06:42:32;;;;;;;41.97;15.88;;;;;;;;;;5075257;28;20043;-38
2022/04/28 06:44:57;;;;;;;24.58;13.20;;;;;;;;;;5079303;28;20032;-38
2022/04/28 06:47:23;;;;;;;28.02;12.20;;;;;;;;;;5083033;28;20507;-38
2022/04/28 06:49:48;;;;;;;54.30;15.40;;;;;;;;;;5075579;28;20599;-42
2022/04/28 06:52:13;;;;;;;39.92;13.77;;;;;;;;;;5086343;28;21699;-38
2022/04/28 06:54:39;;;;;;;47.08;13.13;;;;;;;;;;5087740;28;20020;-38
2022/04/28 06:57:05;;;;;;;33.95;12.60;;;;;;;;;;5092376;28;20047;-38
2022/04/28 06:59:30;;;;;;;53.88;29.95;;;;;;;;;;5080055;28;20016;-39
2022/04/28 07:01:55;;;;;;;52.17;18.55;;;;;;;;;;5085384;28;20020;-38
2022/04/28 07:04:21;;;;;;;25.65;11.75;;;;;;;;;;5084031;28;20024;-38
2022/04/28 07:06:46;;;;;;;39.78;12.07;;;;;;;;;;5077656;28;20078;-37
2022/04/28 07:09:11;;;;;;;74.65;66.57;;;;;;;;;;5075970;28;20059;-40
2022/04/28 07:11:37;;;;;;;43.85;15.10;;;;;;;;;;5072335;28;20052;-42
2022/04/28 07:14:02;;;;;;;47.50;13.98;;;;;;;;;;5078968;28;20506;-38
2022/04/28 07:16:27;;;;;;;33.70;11.63;;;;;;;;;;5083237;28;20024;-39
2022/04/28 07:18:53;;;;;;;58.95;14.32;;;;;;;;;;5078059;28;20020;-43
2022/04/28 07:21:18;;;;;;;17.48;9.77;;;;;;;;;;5076867;28;20024;-39
2022/04/28 07:23:44;;;;;;;21.35;10.93;;;;;;;;;;5080271;28;20017;-38
2022/04/28 07:26:09;;;;;;;17.55;8.65;;;;;;;;;;5079421;28;20031;-38
2022/04/28 07:28:34;;;;;;;27.40;10.60;;;;;;;;;;5077162;28;20146;-38
2022/04/28 07:31:00;;;;;;;15.93;8.90;;;;;;;;;;5081514;28;20033;-39
2022/04/28 07:33:25;;;;;;;19.25;9.32;;;;;;;;;;5087706;28;20123;-38
2022/04/28 07:35:50;;;;;;;17.45;10.02;;;;;;;;;;5079742;28;20035;-38
2022/04/28 07:38:15;;;;;;;19.73;9.63;;;;;;;;;;5086132;28;20069;-46
2022/04/28 07:40:41;;;;;;;21.33;10.27;;;;;;;;;;5077635;28;20107;-36
2022/04/28 07:43:06;;;;;;;31.50;11.70;;;;;;;;;;5085980;28;20040;-38
2022/04/28 07:45:32;;;;;;;22.45;9.77;;;;;;;;;;5083037;28;20040;-43
2022/04/28 07:47:57;;;;;;;21.02;10.20;;;;;;;;;;5089883;28;20807;-37
2022/04/28 07:50:23;;;;;;;20.92;10.43;;;;;;;;;;5091616;28;20027;-37
2022/04/28 07:52:48;;;;;;;17.45;10.40;;;;;;;;;;5092469;28;20031;-38
2022/04/28 07:55:13;;;;;;;15.73;9.68;;;;;;;;;;5092090;28;20058;-37
2022/04/28 07:57:39;;;;;;;16.65;9.73;;;;;;;;;;5092103;28;20077;-37
2022/04/28 08:00:05;;;;;;;23.90;11.05;;;;;;;;;;5091084;28;20058;-39
2022/04/28 08:02:31;;;;;;;16.90;9.55;;;;;;;;;;5089619;28;20024;-38
2022/04/28 08:04:57;;;;;;;19.05;10.23;;;;;;;;;;5089904;28;20032;-40
2022/04/28 08:07:23;;;;;;;16.17;10.27;;;;;;;;;;5089893;28;20032;-38
2022/04/28 08:09:48;;;;;;;13.15;9.50;;;;;;;;;;5089770;28;20024;-41
2022/04/28 08:12:13;;;;;;;14.93;9.82;;;;;;;;;;5088352;28;20050;-38
2022/04/28 08:14:39;;;;;;;14.23;8.73;;;;;;;;;;5093189;28;20077;-40
2022/04/28 08:17:05;;;;;;;13.27;9.05;;;;;;;;;;5085548;28;20016;-37
2022/04/28 08:19:32;;;;;;;13.98;9.07;;;;;;;;;;5088388;28;20021;-41
2022/04/28 08:21:57;;;;;;;16.55;9.00;;;;;;;;;;5094354;28;20031;-37
2022/04/28 08:24:22;;;;;;;11.90;7.45;;;;;;;;;;5095327;28;20024;-36
2022/04/28 08:26:48;;;;;;;11.68;8.27;;;;;;;;;;5095536;28;20155;-40
2022/04/28 08:29:14;;;;;;;11.60;7.93;;;;;;;;;;5081276;28;20012;-38
2022/04/28 08:31:44;;;;;;;13.88;7.85;;;;;;;;;;5081553;28;20032;-37
2022/04/28 08:34:13;;;;;;;11.18;8.02;;;;;;;;;;5083705;28;20051;-37
2022/04/28 08:36:39;;;;;;;11.18;7.32;;;;;;;;;;5089084;28;20024;-38
2022/04/28 08:39:05;;;;;;;13.23;8.00;;;;;;;;;;5092203;28;20165;-39
2022/04/28 08:41:32;;;;;;;12.23;7.38;;;;;;;;;;5090342;28;20526;-38
2022/04/28 08:43:59;;;;;;;11.52;7.25;;;;;;;;;;5095049;28;20023;-39
2022/04/28 08:49:10;;;;;;;13.55;8.20;;;;;;;;;;5094490;28;20051;-39
2022/04/28 08:51:37;;;;;;;13.77;8.40;;;;;;;;;;5094649;28;20016;-39
2022/04/28 08:54:02;;;;;;;20.55;8.20;;;;;;;;;;5095073;28;20020;-37
2022/04/28 08:56:28;;;;;;;18.13;8.27;;;;;;;;;;5094697;28;20157;-40
2022/04/28 08:58:54;;;;;;;14.05;8.52;;;;;;;;;;5095005;28;20102;-37
2022/04/28 09:01:23;;;;;;;15.63;7.38;;;;;;;;;;5087446;28;20052;-42
2022/04/28 09:03:48;;;;;;;18.63;8.80;;;;;;;;;;5087714;28;20016;-38
2022/04/28 09:06:17;;;;;;;21.38;8.65;;;;;;;;;;5081690;28;20471;-38
2022/04/28 09:08:43;;;;;;;11.27;8.02;;;;;;;;;;5080458;28;20039;-38
2022/04/28 09:11:22;;;;;;;14.05;8.30;;;;;;;;;;5082762;28;20027;-39
2022/04/28 09:14:10;;;;;;;14.73;7.70;;;;;;;;;;5082043;28;20039;-38
2022/04/28 09:16:41;;;;;;;12.32;7.45;;;;;;;;;;5081634;28;20493;-37
2022/04/28 09:19:06;;;;;;;11.73;7.20;;;;;;;;;;5083620;28;20111;-39
2022/04/28 09:21:32;;;;;;;11.75;8.00;;;;;;;;;;5085905;28;20095;-38
2022/04/28 09:23:58;;;;;;;12.02;7.43;;;;;;;;;;5079014;28;20025;-39
2022/04/28 09:26:26;;;;;;;10.85;8.10;;;;;;;;;;5082214;28;20023;-39
2022/04/28 09:28:53;;;;;;;12.15;8.70;;;;;;;;;;5083010;28;20032;-42
2022/04/28 09:31:19;;;;;;;11.35;7.53;;;;;;;;;;5080827;28;20039;-45
2022/04/28 09:33:46;;;;;;;11.38;7.60;;;;;;;;;;5083843;28;20077;-39
2022/04/28 09:36:12;;;;;;;16.58;8.32;;;;;;;;;;5076790;28;20024;-39
2022/04/28 09:38:37;;;;;;;11.85;7.93;;;;;;;;;;5080344;28;20023;-40
2022/04/28 09:43:48;;;;;;;9.73;7.18;;;;;;;;;;5093465;28;20477;-39
2022/04/28 09:46:14;;;;;;;10.35;7.32;;;;;;;;;;5086558;28;20023;-39
2022/04/28 09:48:42;;;;;;;9.15;6.38;;;;;;;;;;5084300;28;20123;-40
2022/04/28 09:51:09;;;;;;;12.40;7.35;;;;;;;;;;5093352;28;20017;-38
2022/04/28 09:53:36;;;;;;;9.88;6.93;;;;;;;;;;5093644;28;20040;-38
2022/04/28 09:56:03;;;;;;;8.32;6.40;;;;;;;;;;5091564;28;20016;-39
2022/04/28 09:58:29;;;;;;;12.73;6.65;;;;;;;;;;5078006;28;20381;-47
2022/04/28 10:01:00;;;;;;;9.95;6.50;;;;;;;;;;5093475;28;20031;-39
2022/04/28 10:03:27;;;;;;;7.95;5.88;;;;;;;;;;5092098;28;20024;-38
2022/04/28 10:05:53;;;;;;;11.80;6.95;;;;;;;;;;5091708;28;20107;-39
2022/04/28 10:08:20;;;;;;;11.30;7.65;;;;;;;;;;5083206;28;20043;-41
2022/04/28 10:10:46;;;;;;;12.38;7.57;;;;;;;;;;5082896;28;20023;-38
2022/04/28 10:13:12;;;;;;;8.38;6.47;;;;;;;;;;5093199;28;20111;-38
2022/04/28 10:15:37;;;;;;;10.30;6.80;;;;;;;;;;5093160;28;20137;-38
2022/04/28 10:18:09;;;;;;;8.13;5.95;;;;;;;;;;5084777;28;20024;-39
2022/04/28 10:20:36;;;;;;;9.75;6.60;;;;;;;;;;5084750;28;20395;-39
2022/04/28 10:23:04;;;;;;;7.88;5.72;;;;;;;;;;5081934;28;20147;-39
2022/04/28 10:34:11;;;;;;;9.20;6.20;;;;;;;;;;5076680;28;20446;-38
2022/04/28 10:36:56;;;;;;;7.15;5.80;;;;;;;;;;5085349;28;20034;-38
2022/04/28 10:39:41;;;;;;;9.52;6.18;;;;;;;;;;5087690;28;20051;-38
2022/04/28 10:42:14;;;;;;;10.30;5.65;;;;;;;;;;5085093;28;20028;-38
2022/04/28 10:44:47;;;;;;;8.13;5.30;;;;;;;;;;5085549;28;20113;-39
2022/04/28 10:47:20;;;;;;;10.32;6.00;;;;;;;;;;5082916;28;20035;-38
2022/04/28 10:49:51;;;;;;;10.43;5.97;;;;;;;;;;5076447;28;20460;-38
2022/04/28 10:52:20;;;;;;;10.88;5.43;;;;;;;;;;5084614;28;20352;-38
2022/04/28 10:54:46;;;;;;;9.02;5.93;;;;;;;;;;5082583;28;20054;-39
2022/04/28 10:57:12;;;;;;;6.70;5.28;;;;;;;;;;5078782;28;20035;-38
2022/04/28 10:59:39;;;;;;;8.60;4.90;;;;;;;;;;5088268;28;20024;-40
2022/04/28 11:02:07;;;;;;;8.10;5.15;;;;;;;;;;5077197;28;20035;-38
2022/04/28 11:04:32;;;;;;;8.32;5.45;;;;;;;;;;5079218;28;20032;-41
2022/04/28 11:06:58;;;;;;;7.65;5.03;;;;;;;;;;5075465;28;20035;-42
2022/04/28 11:09:42;;;;;;;8.88;5.70;;;;;;;;;;5075434;28;20031;-39
2022/04/28 11:12:18;;;;;;;7.50;5.05;;;;;;;;;;5090068;28;20028;-39
2022/04/28 11:14:46;;;;;;;5.78;4.80;;;;;;;;;;5079008;28;20029;-39
2022/04/28 11:17:12;;;;;;;14.73;5.63;;;;;;;;;;5092512;28;20019;-39
2022/04/28 11:19:38;;;;;;;22.02;6.43;;;;;;;;;;5074930;28;20094;-39
2022/04/28 11:22:03;;;;;;;8.00;4.80;;;;;;;;;;5084641;28;20035;-38
2022/04/28 11:24:29;;;;;;;13.07;5.78;;;;;;;;;;5081072;28;20031;-39
2022/04/28 11:26:58;;;;;;;9.57;5.18;;;;;;;;;;5084096;28;20066;-40
2022/04/28 11:29:23;;;;;;;17.07;5.87;;;;;;;;;;5087630;28;20110;-39
2022/04/28 11:31:49;;;;;;;9.35;5.28;;;;;;;;;;5091502;28;20543;-38
2022/04/28 11:34:15;;;;;;;15.23;5.65;;;;;;;;;;5084992;28;20055;-42
2022/04/28 11:36:41;;;;;;;10.88;4.60;;;;;;;;;;5076694;28;20112;-38
2022/04/28 11:39:08;;;;;;;11.02;5.55;;;;;;;;;;5088513;28;20103;-39
2022/04/28 11:41:39;;;;;;;7.03;4.18;;;;;;;;;;5079763;28;20032;-38
2022/04/28 11:44:07;;;;;;;12.05;5.43;;;;;;;;;;5076816;28;20035;-38
2022/04/28 11:46:51;;;;;;;8.63;4.28;;;;;;;;;;5085433;28;20024;-38
2022/04/28 11:49:17;;;;;;;22.90;6.28;;;;;;;;;;5086612;28;20040;-40
2022/04/28 11:51:43;;;;;;;20.67;5.85;;;;;;;;;;5082596;28;20535;-39
2022/04/28 11:54:22;;;;;;;14.27;4.97;;;;;;;;;;5079962;28;20103;-38
2022/04/28 11:56:48;;;;;;;14.98;4.93;;;;;;;;;;5095858;28;20120;-38
2022/04/28 11:59:13;;;;;;;18.85;5.47;;;;;;;;;;5095897;28;20490;-37
2022/04/28 12:01:39;;;;;;;9.05;5.20;;;;;;;;;;5095829;28;20043;-38
2022/04/28 12:04:05;;;;;;;11.32;4.53;;;;;;;;;;5095631;28;20056;-38
2022/04/28 12:06:31;;;;;;;8.98;4.25;;;;;;;;;;5094512;28;20020;-37
2022/04/28 12:08:58;;;;;;;18.35;5.70;;;;;;;;;;5095565;28;20054;-40
2022/04/28 12:14:24;;;;;;;13.30;4.80;;;;;;;;;;5096092;28;20031;-38
2022/04/28 12:19:50;;;;;;;19.13;5.88;;;;;;;;;;5095387;28;20077;-39
2022/04/28 12:22:35;;;;;;;14.63;5.68;;;;;;;;;;5094479;28;20107;-38
2022/04/28 12:25:10;;;;;;;9.38;4.10;;;;;;;;;;5093705;28;20012;-37
2022/04/28 12:27:39;;;;;;;18.83;5.55;;;;;;;;;;5083674;28;20087;-39
2022/04/28 12:30:07;;;;;;;15.60;4.90;;;;;;;;;;5078415;28;20032;-37
2022/04/28 12:32:40;;;;;;;12.90;4.77;;;;;;;;;;5093327;28;20268;-41
2022/04/28 12:35:05;;;;;;;13.32;5.03;;;;;;;;;;5084291;28;20428;-38
2022/04/28 12:37:31;;;;;;;13.63;5.03;;;;;;;;;;5084182;28;20111;-39
2022/04/28 12:40:00;;;;;;;16.15;5.00;;;;;;;;;;5077643;28;20021;-37
2022/04/28 12:42:25;;;;;;;;;;;;;;;;;;5083017;28;20047;-38
2022/04/28 12:44:52;;;;;;;14.43;4.78;;;;;;;;;;5088308;28;20278;-39
2022/04/28 12:47:17;;;;;;;15.25;4.82;;;;;;;;;;5076669;28;20032;-38
2022/04/28 12:49:44;;;;;;;18.63;5.78;;;;;;;;;;5087595;28;20031;-41
2022/04/28 12:52:09;;;;;;;10.43;4.95;;;;;;;;;;5075985;28;20471;-38
2022/04/28 12:54:36;;;;;;;11.10;4.28;;;;;;;;;;5085694;28;20032;-38
2022/04/28 12:57:05;;;;;;;8.75;4.47;;;;;;;;;;5089043;28;20024;-39
2022/04/28 12:59:31;;;;;;;21.38;5.68;;;;;;;;;;5080917;28;20052;-39
2022/04/28 13:01:56;;;;;;;11.75;4.90;;;;;;;;;;5081566;28;20052;-38
2022/04/28 13:04:23;;;;;;;13.93;5.10;;;;;;;;;;5080533;28;20436;-42
2022/04/28 13:06:50;;;;;;;18.15;5.60;;;;;;;;;;5085340;28;20379;-39
2022/04/28 13:09:15;;;;;;;15.20;5.63;;;;;;;;;;5089474;28;20089;-38
2022/04/28 13:11:41;;;;;;;15.95;5.57;;;;;;;;;;5089025;28;20511;-39
2022/04/28 13:14:08;;;;;;;20.88;6.07;;;;;;;;;;5077804;28;20489;-39
2022/04/28 13:16:34;;;;;;;9.38;4.68;;;;;;;;;;5086197;28;20096;-39
2022/04/28 13:19:00;;;;;;;12.02;4.70;;;;;;;;;;5082008;28;20459;-39
2022/04/28 13:21:26;;;;;;;11.18;5.30;;;;;;;;;;5082387;28;20383;-38
2022/04/28 13:23:51;;;;;;;18.58;5.50;;;;;;;;;;5091286;28;20105;-38
2022/04/28 13:26:17;;;;;;;15.60;5.63;;;;;;;;;;5087605;28;20090;-38
2022/04/28 13:28:43;;;;;;;19.77;5.80;;;;;;;;;;5082894;28;20040;-40
2022/04/28 13:31:09;;;;;;;11.05;4.20;;;;;;;;;;5077889;28;20021;-38
2022/04/28 13:33:34;;;;;;;12.90;5.10;;;;;;;;;;5079404;28;20048;-39
2022/04/28 13:36:01;;;;;;;10.82;4.97;;;;;;;;;;5094203;28;20099;-38
2022/04/28 13:38:26;;;;;;;14.75;5.95;;;;;;;;;;5093287;28;20031;-38
2022/04/28 13:40:52;;;;;;;26.65;7.28;;;;;;;;;;5082466;28;20016;-38
2022/04/28 13:43:17;;;;;;;24.02;5.82;;;;;;;;;;5091349;28;20039;-43
2022/04/28 13:45:42;;;;;;;18.27;5.53;;;;;;;;;;5075689;28;20495;-40
2022/04/28 13:48:10;;;;;;;15.15;5.35;;;;;;;;;;5079573;28;20056;-38
2022/04/28 13:50:38;;;;;;;17.42;6.15;;;;;;;;;;5078929;28;20467;-39
2022/04/28 13:53:04;;;;;;;18.97;6.17;;;;;;;;;;5089130;28;20413;-39
2022/04/28 13:55:29;;;;;;;12.02;5.03;;;;;;;;;;5081917;28;20024;-38
2022/04/28 13:57:55;;;;;;;38.03;6.70;;;;;;;;;;5089065;28;20375;-38
2022/04/28 14:00:21;;;;;;;16.13;5.53;;;;;;;;;;5089263;28;20051;-39
2022/04/28 14:02:47;;;;;;;16.45;5.72;;;;;;;;;;5080045;28;20486;-38
2022/04/28 14:05:12;;;;;;;11.80;5.05;;;;;;;;;;5073077;28;20025;-38
2022/04/28 14:07:38;;;;;;;18.42;5.72;;;;;;;;;;5093241;28;20031;-39
2022/04/28 14:10:04;;;;;;;20.88;5.85;;;;;;;;;;5084495;28;20032;-40
2022/04/28 14:12:29;;;;;;;25.23;6.75;;;;;;;;;;5084431;28;20391;-38
2022/04/28 14:14:55;;;;;;;17.30;5.93;;;;;;;;;;5087869;28;20031;-38
2022/04/28 14:17:20;;;;;;;18.27;6.40;;;;;;;;;;5082327;28;20020;-38
2022/04/28 14:19:45;;;;;;;14.93;5.10;;;;;;;;;;5076370;28;20024;-38
2022/04/28 14:22:17;;;;;;;13.60;4.80;;;;;;;;;;5080351;28;20017;-38
2022/04/28 14:24:42;;;;;;;15.80;5.28;;;;;;;;;;5094692;28;20031;-39
2022/04/28 14:27:08;;;;;;;22.65;6.15;;;;;;;;;;5090513;28;20023;-39
2022/04/28 14:29:33;;;;;;;27.95;6.47;;;;;;;;;;5073382;28;20352;-39
2022/04/28 14:32:01;;;;;;;9.50;3.97;;;;;;;;;;5081403;28;20028;-38
2022/04/28 14:34:26;;;;;;;22.58;5.50;;;;;;;;;;5086275;28;20115;-40
2022/04/28 14:36:52;;;;;;;6.85;3.85;;;;;;;;;;5092076;28;20099;-39
2022/04/28 14:39:17;;;;;;;12.02;4.45;;;;;;;;;;5092960;28;20021;-39
2022/04/28 14:41:42;;;;;;;25.17;5.88;;;;;;;;;;5091305;28;20374;-39
2022/04/28 14:44:08;;;;;;;13.13;4.50;;;;;;;;;;5092431;28;20021;-39
2022/04/28 14:46:33;;;;;;;16.25;4.43;;;;;;;;;;5093063;28;20025;-39
2022/04/28 14:54:28;;;;;;;13.65;4.28;;;;;;;;;;5092800;28;20039;-38
2022/04/28 14:56:53;;;;;;;12.00;3.53;;;;;;;;;;5093357;28;20016;-38
2022/04/28 14:59:19;;;;;;;4.95;3.00;;;;;;;;;;5093394;28;20024;-38
2022/04/28 15:01:45;;;;;;;8.43;2.90;;;;;;;;;;5093199;28;20508;-38